Great Basin Natl Park, Nevada
Current Conditions -  °F | °C
As of 10:53 AM on Friday 31 Oct 2014 (Local Time) from KELY Reporting Station
Clear Clear  
Wind Chill: 63°   Ceiling: Unl
Heat Index: 63°   Visibility: 10mi
Dew Point: 26°   Wind: 26mph
Humidity: 25%   Direction: 170°S
Pressure: 30.01"   Gusts: 35mph
Location:  39°N, 114.25°W
Report Text: KELY 311753Z AUTO 17023G30KT 10SM CLR 17/M03 A3001 RMK AO2 PK WND 15033/1701 SLP096 T01721033 10178 20056 58013
Loading
Personal Weather Stations






























Interactive Weather Map
Tropical Storm Tracking
New forecast layout! Learn more

10-Day Weather Forecast

Advertisements
Track Severe Weather on mobile